createdAt,value
2023-05-20T00:01:07.946Z,95620.25
2023-05-20T00:03:36.145Z,95633.44
2023-05-20T00:06:04.145Z,95629.28
2023-05-20T00:08:32.164Z,95625.66
2023-05-20T00:11:01.553Z,95629.16
2023-05-20T00:13:29.601Z,95622.50
2023-05-20T00:15:57.648Z,95621.59
2023-05-20T00:18:25.658Z,95627.78
2023-05-20T00:20:54.537Z,95620.81
2023-05-20T00:23:22.482Z,95627.69
2023-05-20T00:25:50.675Z,95615.16
2023-05-20T00:28:21.215Z,95608.50
2023-05-20T00:30:49.133Z,95605.00
2023-05-20T00:33:17.194Z,95609.28
2023-05-20T00:35:45.241Z,95605.09
2023-05-20T00:38:13.190Z,95601.63
2023-05-20T00:40:41.167Z,95600.94
2023-05-20T00:43:09.139Z,95603.66
2023-05-20T00:45:39.020Z,95599.38
2023-05-20T00:48:08.491Z,95584.25
2023-05-20T00:50:36.609Z,95586.94
2023-05-20T00:53:05.131Z,95601.63
2023-05-20T00:55:34.054Z,95588.31
2023-05-20T00:58:02.230Z,95448.38
2023-05-20T01:00:30.183Z,95594.47
2023-05-20T01:03:00.022Z,95600.09
2023-05-20T01:05:28.427Z,95596.16
2023-05-20T01:07:56.707Z,95586.88
2023-05-20T01:10:30.125Z,95600.19
2023-05-20T01:13:03.050Z,95599.09
2023-05-20T01:15:32.666Z,95608.31
2023-05-20T01:18:06.287Z,95604.03
2023-05-20T01:20:34.869Z,95574.03
2023-05-20T01:23:04.549Z,95607.16
2023-05-20T01:25:32.727Z,95600.84
2023-05-20T01:28:00.934Z,95600.38
2023-05-20T01:30:39.716Z,95600.38
2023-05-20T01:33:12.049Z,95602.09
2023-05-20T01:35:41.814Z,95569.56
2023-05-20T01:38:11.379Z,95607.56
2023-05-20T01:40:41.949Z,95614.72
2023-05-20T01:43:10.889Z,95610.56
2023-05-20T01:45:39.945Z,95609.72
2023-05-20T01:48:07.985Z,95600.81
2023-05-20T01:50:35.910Z,95602.00
2023-05-20T01:53:03.959Z,95595.91
2023-05-20T01:55:33.479Z,95598.00
2023-05-20T01:58:01.760Z,95606.66
2023-05-20T02:00:29.849Z,95604.66
2023-05-20T02:02:57.941Z,95601.94
2023-05-20T02:05:26.041Z,95593.09
2023-05-20T02:07:53.997Z,95583.97
2023-05-20T02:10:22.076Z,95592.56
2023-05-20T02:12:51.415Z,95603.69
2023-05-20T02:15:19.596Z,95595.13
2023-05-20T02:17:49.548Z,95595.94
2023-05-20T02:20:17.812Z,95591.97
2023-05-20T02:22:45.821Z,95595.00
2023-05-20T02:25:14.010Z,95588.22
2023-05-20T02:27:42.096Z,95590.13
2023-05-20T02:30:12.220Z,95588.69
2023-05-20T02:32:40.225Z,95587.09
2023-05-20T02:35:08.769Z,95590.66
2023-05-20T02:37:39.052Z,95597.94
2023-05-20T02:40:09.365Z,95589.06
2023-05-20T02:42:37.407Z,95595.72
2023-05-20T02:45:06.223Z,95593.16
2023-05-20T02:47:35.654Z,95592.22
2023-05-20T02:50:03.612Z,95589.84
2023-05-20T02:52:31.590Z,95595.78
2023-05-20T02:54:59.711Z,95590.19
2023-05-20T02:57:28.492Z,95588.41
2023-05-20T02:59:58.356Z,95594.91
2023-05-20T03:02:26.294Z,95590.38
2023-05-20T03:04:55.665Z,95595.97
2023-05-20T03:07:23.715Z,95601.53
2023-05-20T03:09:51.698Z,95604.06
2023-05-20T03:12:20.036Z,95614.34
2023-05-20T03:14:48.029Z,95609.44
2023-05-20T03:17:16.212Z,95614.84
2023-05-20T03:19:44.174Z,95618.38
2023-05-20T03:22:13.582Z,95605.44
2023-05-20T03:24:43.114Z,95596.22
2023-05-20T03:27:11.520Z,95607.72
2023-05-20T03:29:39.930Z,95620.28
2023-05-20T03:32:10.144Z,95612.06
2023-05-20T03:34:39.390Z,95612.47
2023-05-20T03:37:07.459Z,95620.88
2023-05-20T03:39:36.830Z,95620.38
2023-05-20T03:42:04.993Z,95620.19
2023-05-20T03:44:33.044Z,95620.16
2023-05-20T03:47:01.067Z,95617.47
2023-05-20T03:49:29.033Z,95627.59
2023-05-20T03:51:57.018Z,95625.41
2023-05-20T03:54:24.962Z,95628.84
2023-05-20T03:56:54.917Z,95631.72
2023-05-20T03:59:23.496Z,95635.09
2023-05-20T04:01:51.537Z,95642.81
2023-05-20T04:04:19.640Z,95637.47
2023-05-20T04:06:47.729Z,95637.97
2023-05-20T04:09:15.976Z,95648.91
2023-05-20T04:11:43.909Z,95642.06
2023-05-20T04:14:13.273Z,95640.88
2023-05-20T04:16:41.340Z,95641.56
2023-05-20T04:19:09.417Z,95641.16
2023-05-20T04:21:37.565Z,95631.16
2023-05-20T04:24:05.739Z,95633.91
2023-05-20T04:26:35.481Z,95634.59
2023-05-20T04:29:04.232Z,95596.06
2023-05-20T04:31:33.639Z,95645.22
2023-05-20T04:34:02.819Z,95637.47
2023-05-20T04:36:32.538Z,95636.25
2023-05-20T04:39:00.652Z,95639.09
2023-05-20T04:41:28.727Z,95617.44
2023-05-20T04:43:59.888Z,95642.44
2023-05-20T04:46:29.255Z,95641.28
2023-05-20T04:48:58.648Z,95640.25
2023-05-20T04:51:26.667Z,95644.63
2023-05-20T04:53:54.690Z,95639.28
2023-05-20T04:56:22.710Z,95634.28
2023-05-20T04:59:16.203Z,95647.19
2023-05-20T05:01:44.261Z,95583.22
2023-05-20T05:04:13.667Z,95641.75
2023-05-20T05:06:41.870Z,95635.06
2023-05-20T05:09:19.450Z,95636.53
2023-05-20T05:32:24.476Z,95627.63
2023-05-20T05:34:54.812Z,95623.19
2023-05-20T05:37:22.778Z,95615.47
2023-05-20T05:39:51.163Z,95614.66
2023-05-20T05:42:19.219Z,95605.44
2023-05-20T05:44:47.715Z,95620.53
2023-05-20T05:47:16.002Z,95625.69
2023-05-20T05:49:44.087Z,95624.97
2023-05-20T05:52:14.310Z,95626.69
2023-05-20T05:54:42.771Z,95625.59
2023-05-20T05:57:12.150Z,95620.94
2023-05-20T05:59:40.217Z,95593.47
2023-05-20T06:02:10.051Z,95613.03
2023-05-20T06:04:38.219Z,95600.88
2023-05-20T06:07:06.803Z,95590.28
2023-05-20T06:09:36.289Z,95540.06
2023-05-20T06:12:07.270Z,95601.41
2023-05-20T06:14:35.571Z,95602.31
2023-05-20T06:17:16.070Z,95592.97
2023-05-20T06:24:07.530Z,95599.31
2023-05-20T06:26:38.154Z,95591.13
2023-05-20T06:29:12.264Z,95599.22
2023-05-20T06:31:40.998Z,95592.72
2023-05-20T06:34:09.140Z,95592.53
2023-05-20T06:36:37.931Z,95593.50
2023-05-20T06:39:12.653Z,95586.38
2023-05-20T06:41:50.507Z,95549.59
2023-05-20T06:44:34.283Z,95577.59
2023-05-20T07:00:41.852Z,95580.94
2023-05-20T08:45:26.639Z,95523.78
2023-05-20T09:04:17.777Z,95535.94
2023-05-20T09:07:45.947Z,95540.47
2023-05-20T09:10:16.862Z,95512.66
2023-05-20T09:13:12.296Z,95527.22
2023-05-20T09:15:40.956Z,95491.56
2023-05-20T09:18:09.741Z,95523.41
2023-05-20T09:29:21.970Z,95506.16
2023-05-20T09:31:50.768Z,95522.88
2023-05-20T10:13:41.169Z,95470.44
2023-05-20T10:16:16.118Z,95465.00
2023-05-20T10:18:56.701Z,95452.53
2023-05-20T10:21:26.124Z,95454.59
2023-05-20T10:32:00.217Z,95427.75
2023-05-20T10:34:30.160Z,95428.47
2023-05-20T10:37:01.825Z,95436.84
2023-05-20T10:50:47.211Z,95417.59
2023-05-20T11:00:44.772Z,95397.84
2023-05-20T11:03:35.670Z,95391.91
2023-05-20T11:06:29.961Z,95394.88
2023-05-20T11:09:06.712Z,95392.31
2023-05-20T11:11:34.917Z,95393.44
2023-05-20T11:14:03.538Z,95388.44
2023-05-20T11:16:31.799Z,95396.72
2023-05-20T11:19:00.138Z,95394.78
2023-05-20T11:21:29.759Z,95386.63
2023-05-20T11:27:48.318Z,95373.44
2023-05-20T11:30:32.107Z,95303.97
2023-05-20T11:33:02.101Z,95364.69
2023-05-20T11:35:32.331Z,95368.06
2023-05-20T11:38:17.875Z,95358.44
2023-05-20T11:41:17.051Z,95356.78
2023-05-20T11:44:40.544Z,95348.56
2023-05-20T11:47:27.795Z,95355.19
2023-05-20T11:49:57.554Z,95355.97
2023-05-20T11:56:17.639Z,95348.00
2023-05-20T11:59:28.752Z,95349.00
2023-05-20T12:01:56.966Z,95353.69
2023-05-20T12:04:25.272Z,95350.03
2023-05-20T12:07:10.454Z,95345.94
2023-05-20T12:10:26.120Z,95340.53
2023-05-20T12:12:55.848Z,95338.94
2023-05-20T12:15:24.339Z,95342.38
2023-05-20T12:17:53.767Z,95334.78
2023-05-20T12:20:23.816Z,95346.16
2023-05-20T12:22:53.254Z,95345.28
2023-05-20T12:25:22.214Z,95345.81
2023-05-20T12:27:50.705Z,95339.25
2023-05-20T12:30:21.905Z,95322.94
2023-05-20T12:32:52.312Z,95354.53
2023-05-20T12:35:26.995Z,95360.34
2023-05-20T12:37:55.094Z,95365.03
2023-05-20T12:40:23.363Z,95377.25
2023-05-20T12:42:51.367Z,95350.94
2023-05-20T12:45:20.786Z,95370.13
2023-05-20T12:47:49.559Z,95372.94
2023-05-20T12:50:17.795Z,95388.66
2023-05-20T12:52:45.798Z,95383.22
2023-05-20T12:55:14.725Z,95365.44
2023-05-20T12:57:43.134Z,95313.25
2023-05-20T13:00:12.928Z,95361.59
2023-05-20T13:02:43.520Z,95366.69
2023-05-20T13:05:12.422Z,95342.44
2023-05-20T13:07:40.605Z,95362.16
2023-05-20T13:10:10.597Z,95370.81
2023-05-20T13:12:38.958Z,95352.72
2023-05-20T13:15:08.285Z,95358.81
2023-05-20T13:17:36.270Z,95330.72
2023-05-20T13:20:06.768Z,95332.75
2023-05-20T13:22:34.956Z,95339.97
2023-05-20T13:25:03.030Z,95346.84
2023-05-20T13:27:31.143Z,95343.41
2023-05-20T13:29:59.565Z,95337.53
2023-05-20T13:32:28.576Z,95339.78
2023-05-20T13:34:59.835Z,95341.81
2023-05-20T13:37:30.124Z,95330.34
2023-05-20T13:39:58.155Z,95319.22
2023-05-20T13:42:26.242Z,95328.56
2023-05-20T13:44:54.352Z,95337.81
2023-05-20T13:47:22.372Z,95333.25
2023-05-20T13:49:50.547Z,95329.06
2023-05-20T13:52:18.618Z,95336.47
2023-05-20T13:54:48.774Z,95342.31
2023-05-20T13:57:17.024Z,95332.63
2023-05-20T13:59:45.162Z,95338.47
2023-05-20T14:02:13.239Z,95322.03
2023-05-20T14:04:44.945Z,95316.94
2023-05-20T14:07:13.028Z,95312.25
2023-05-20T14:09:41.154Z,95316.53
2023-05-20T14:12:10.908Z,95316.13
2023-05-20T14:14:38.854Z,95298.53
2023-05-20T14:17:06.894Z,95293.47
2023-05-20T14:19:35.031Z,95280.16
2023-05-20T14:22:03.457Z,95302.88
2023-05-20T14:24:31.534Z,95306.38
2023-05-20T14:26:59.610Z,95307.53
2023-05-20T14:29:29.009Z,95309.13
2023-05-20T14:31:57.136Z,95304.41
2023-05-20T14:34:25.673Z,95306.75
2023-05-20T14:36:53.771Z,95292.66
2023-05-20T14:39:22.153Z,95313.81
2023-05-20T14:41:50.606Z,95298.16
2023-05-20T14:44:18.577Z,95284.84
2023-05-20T14:46:48.639Z,95289.53
2023-05-20T14:49:16.745Z,95291.09
2023-05-20T14:51:45.152Z,95295.03
2023-05-20T14:54:14.334Z,95300.50
2023-05-20T14:56:42.376Z,95282.09
2023-05-20T14:59:11.049Z,95271.50
2023-05-20T15:01:39.125Z,95296.91
2023-05-20T15:04:09.319Z,95299.66
2023-05-20T15:06:37.622Z,95298.81
2023-05-20T15:09:06.972Z,95307.78
2023-05-20T15:11:34.970Z,95290.19
2023-05-20T15:14:03.065Z,95290.63
2023-05-20T15:16:31.150Z,95293.75
2023-05-20T15:18:59.428Z,95293.34
2023-05-20T15:21:28.794Z,95142.66
2023-05-20T15:23:56.945Z,95257.38
2023-05-20T15:26:26.212Z,95237.78
2023-05-20T15:28:54.404Z,95287.88
2023-05-20T15:31:22.549Z,95282.47
2023-05-20T15:33:50.786Z,95276.22
2023-05-20T15:36:19.059Z,95273.13
2023-05-20T15:38:48.426Z,95247.63
2023-05-20T15:41:16.444Z,95268.34
2023-05-20T15:43:44.585Z,95279.28
2023-05-20T15:46:12.970Z,95215.09
2023-05-20T15:48:41.550Z,95280.00
2023-05-20T15:51:09.712Z,95283.50
2023-05-20T15:53:40.054Z,95269.41
2023-05-20T15:56:12.675Z,95263.94
2023-05-20T15:58:40.888Z,95268.63
2023-05-20T16:01:09.221Z,95269.81
2023-05-20T16:03:37.490Z,95238.16
2023-05-20T16:06:08.157Z,95222.88
2023-05-20T16:08:37.760Z,95255.00
2023-05-20T16:11:06.601Z,95257.38
2023-05-20T16:13:36.081Z,95262.84
2023-05-20T16:16:04.243Z,95248.75
2023-05-20T16:18:32.276Z,95267.50
2023-05-20T16:23:51.069Z,95245.63
2023-05-20T16:26:19.094Z,95263.25
2023-05-20T16:28:48.583Z,95249.16
2023-05-20T16:31:16.851Z,95268.34
2023-05-20T16:33:45.192Z,95262.88
2023-05-20T16:36:13.425Z,95265.22
2023-05-20T16:38:41.404Z,95251.91
2023-05-20T16:41:09.453Z,95264.44
2023-05-20T16:43:37.681Z,95273.00
2023-05-20T16:46:07.136Z,95276.94
2023-05-20T16:48:35.145Z,95263.25
2023-05-20T16:51:03.352Z,95263.66
2023-05-20T16:53:31.464Z,95260.50
2023-05-20T16:55:59.486Z,95264.81
2023-05-20T16:58:27.474Z,95273.00
2023-05-20T17:00:55.893Z,95274.19
2023-05-20T17:03:25.430Z,95274.94
2023-05-20T17:05:53.571Z,95283.16
2023-05-20T17:08:21.867Z,95287.81
2023-05-20T17:10:52.469Z,95289.75
2023-05-20T17:13:22.243Z,95290.91
2023-05-20T17:15:50.312Z,95289.34
2023-05-20T17:18:18.271Z,95286.97
2023-05-20T17:20:48.112Z,95261.91
2023-05-20T17:23:16.210Z,95294.75
2023-05-20T17:25:44.458Z,95299.41
2023-05-20T17:28:12.594Z,95300.94
2023-05-20T17:30:40.734Z,95299.38
2023-05-20T17:33:08.863Z,95297.34
2023-05-20T17:35:37.625Z,95304.75
2023-05-20T17:38:06.924Z,95309.44
2023-05-20T17:40:35.108Z,95313.66
2023-05-20T17:43:03.258Z,95310.13
2023-05-20T17:45:31.439Z,95314.38
2023-05-20T17:47:59.528Z,95282.56
2023-05-20T17:50:27.647Z,95326.44
2023-05-20T17:52:55.713Z,95320.16
2023-05-20T17:55:25.205Z,95325.22
2023-05-20T17:57:53.237Z,95315.47
2023-05-20T18:00:21.749Z,95325.56
2023-05-20T18:02:50.055Z,95328.28
2023-05-20T18:05:18.298Z,95328.25
2023-05-20T18:07:46.449Z,95327.09
2023-05-20T18:10:14.470Z,95333.31
2023-05-20T18:12:45.350Z,95331.75
2023-05-20T18:15:14.522Z,95330.97
2023-05-20T18:17:42.621Z,95323.97
2023-05-20T18:20:11.573Z,95321.59
2023-05-20T18:22:42.757Z,95319.25
2023-05-20T18:25:11.583Z,95327.00
2023-05-20T18:27:39.570Z,95333.25
2023-05-20T18:30:10.743Z,95326.94
2023-05-20T18:32:39.400Z,95332.81
2023-05-20T18:35:08.939Z,95328.94
2023-05-20T18:37:37.063Z,95330.88
2023-05-20T18:40:06.584Z,95309.72
2023-05-20T18:42:34.557Z,95321.13
2023-05-20T18:45:02.603Z,95323.88
2023-05-20T18:47:32.377Z,95273.47
2023-05-20T18:50:00.813Z,95336.25
2023-05-20T18:52:29.091Z,95338.53
2023-05-20T18:54:57.129Z,95345.53
2023-05-20T18:57:25.101Z,95353.72
2023-05-20T18:59:53.122Z,95347.81
2023-05-20T19:02:21.396Z,95354.03
2023-05-20T19:04:50.799Z,95349.31
2023-05-20T19:07:18.878Z,95340.66
2023-05-20T19:09:47.102Z,95343.00
2023-05-20T19:12:15.086Z,95364.16
2023-05-20T19:14:43.141Z,95361.81
2023-05-20T19:17:11.322Z,95375.81
2023-05-20T19:19:39.510Z,95378.28
2023-05-20T19:22:08.954Z,95378.13
2023-05-20T19:24:36.996Z,95371.41
2023-05-20T19:27:05.203Z,95387.69
2023-05-20T19:29:33.245Z,95379.03
2023-05-20T19:32:01.632Z,95360.91
2023-05-20T19:34:30.066Z,95380.38
2023-05-20T19:36:58.071Z,95372.13
2023-05-20T19:39:27.899Z,95369.63
2023-05-20T19:41:55.930Z,95362.00
2023-05-20T19:44:24.649Z,95366.97
2023-05-20T19:46:53.100Z,95368.88
2023-05-20T19:49:21.574Z,95373.22
2023-05-20T19:51:49.638Z,95377.34
2023-05-20T19:54:17.598Z,95369.50
2023-05-20T19:56:47.099Z,95368.97
2023-05-20T19:59:15.148Z,95368.97
2023-05-20T20:01:43.280Z,95378.19
2023-05-20T20:04:13.324Z,95366.44
2023-05-20T20:06:41.341Z,95368.31
2023-05-20T20:09:09.522Z,95368.56
2023-05-20T20:11:37.613Z,95369.63
2023-05-20T20:14:07.106Z,95369.56
2023-05-20T20:16:36.079Z,95361.72
2023-05-20T20:19:04.902Z,95355.63
2023-05-20T20:21:32.892Z,95346.38
2023-05-20T20:24:01.468Z,95337.97
2023-05-20T20:26:31.505Z,95328.97
2023-05-20T20:28:59.541Z,95329.56
2023-05-20T20:31:29.132Z,95328.00
2023-05-20T20:33:57.582Z,95328.06
2023-05-20T20:36:25.900Z,95331.88
2023-05-20T20:38:53.808Z,95323.84
2023-05-20T20:41:21.851Z,95323.34
2023-05-20T20:43:50.637Z,95304.00
2023-05-20T20:46:18.759Z,95317.41
2023-05-20T20:48:48.110Z,95324.81
2023-05-20T20:51:16.906Z,95329.47
2023-05-20T20:53:46.449Z,95290.34
2023-05-20T20:56:14.449Z,95311.56
2023-05-20T20:58:42.821Z,95317.28
2023-05-20T21:01:11.090Z,95313.66
2023-05-20T21:03:40.645Z,95313.75
2023-05-20T21:06:10.189Z,95302.56
2023-05-20T21:08:38.218Z,95323.09
2023-05-20T21:11:06.536Z,95318.91
2023-05-20T21:13:34.604Z,95321.13
2023-05-20T21:16:02.824Z,95322.47
2023-05-20T21:18:30.787Z,95327.41
2023-05-20T21:20:58.902Z,95314.47
2023-05-20T21:23:28.362Z,95323.28
2023-05-20T21:25:56.426Z,95323.56
2023-05-20T21:28:24.699Z,95326.19
2023-05-20T21:30:52.905Z,95314.03
2023-05-20T21:33:21.345Z,95306.72
2023-05-20T21:35:49.434Z,95312.00
2023-05-20T21:38:17.516Z,95316.22
2023-05-20T21:40:46.942Z,95314.38
2023-05-20T21:43:15.317Z,95308.94
2023-05-20T21:45:43.399Z,95314.91
2023-05-20T21:48:11.378Z,95269.28
2023-05-20T21:50:39.373Z,95319.88
2023-05-20T21:53:07.445Z,95317.44
2023-05-20T21:55:35.798Z,95321.56
2023-05-20T21:58:05.269Z,95320.84
2023-05-20T22:00:33.914Z,95308.41
2023-05-20T22:03:02.191Z,95315.28
2023-05-20T22:05:30.603Z,95311.34
2023-05-20T22:08:00.547Z,95302.78
2023-05-20T22:10:28.521Z,95307.41
2023-05-20T22:12:58.344Z,95290.28
2023-05-20T22:15:28.645Z,95300.06
2023-05-20T22:17:57.331Z,95300.69
2023-05-20T22:20:25.789Z,95296.31
2023-05-20T22:22:53.845Z,95291.59
2023-05-20T22:25:21.925Z,95281.91
2023-05-20T22:27:50.355Z,95271.22
2023-05-20T22:30:18.860Z,95283.75
2023-05-20T22:32:48.373Z,95289.59
2023-05-20T22:35:16.938Z,95287.22
2023-05-20T22:37:45.013Z,95284.88
2023-05-20T22:40:13.675Z,95285.16
2023-05-20T22:42:41.657Z,95282.78
2023-05-20T22:45:11.143Z,95275.44
2023-05-20T22:47:39.247Z,95277.00
2023-05-20T22:50:10.217Z,95264.59
2023-05-20T22:52:38.256Z,95272.38
2023-05-20T22:55:07.001Z,95271.59
2023-05-20T22:57:35.000Z,95274.84
2023-05-20T23:00:04.673Z,95280.16
2023-05-20T23:02:32.920Z,95267.13
2023-05-20T23:05:01.369Z,95275.69
2023-05-20T23:07:31.378Z,95269.97
2023-05-20T23:09:59.325Z,95263.91
2023-05-20T23:12:27.400Z,95265.38
2023-05-20T23:14:55.445Z,95257.78
2023-05-20T23:17:23.490Z,95260.56
2023-05-20T23:19:51.529Z,95255.50
2023-05-20T23:22:19.558Z,95247.56
2023-05-20T23:24:48.917Z,95250.78
2023-05-20T23:27:16.941Z,95239.31
2023-05-20T23:29:45.020Z,95231.25
2023-05-20T23:32:13.498Z,95229.41
2023-05-20T23:34:41.703Z,95223.56
2023-05-20T23:37:09.758Z,95223.56
2023-05-20T23:39:37.782Z,95217.72
2023-05-20T23:42:07.268Z,95221.84
2023-05-20T23:44:35.171Z,95218.41
2023-05-20T23:47:03.887Z,95216.16
2023-05-20T23:49:32.132Z,95214.13
2023-05-20T23:52:00.134Z,95212.66
2023-05-20T23:54:28.186Z,95210.13
2023-05-20T23:56:56.491Z,95207.25
2023-05-20T23:59:25.856Z,95200.44
